Point Lay, AK (99759)

4:29 PM AKST en Noviembre 26, 2014 (GMT -0900)
Cape Lisburne LRRS | Change Station
CLOSE
Current Station
Aeropuerto
Location: Cape Lisburne,
Altura: 10 ft
Estaciones meteorológicas cercanas

Alt 10 ft 68.88 °N, 166.13 °W | Updated 34 minutes ago

Clear
Despejado
11 ° F
Sensación térmica -1 ° F
N
8
Viento Variable Viento desde Este

Hoy
Alta -- | Baja -- ° F
--% Posibilidad de precipitaciones
Ayer
Alta -- | Baja -- ° F
Precip. -- pul
1:03 PM 2:16 PM
Creciente, 24% visible
Presión 30.36 pul
Visibilidad 10.0 Millas
Nubes Despejado
Vientos helados -1 ° F
Punto de rocío 2 ° F
Humedad 68%
Precipitaciones 0.00 pul
Espesor de la nieve No disponible.
UV 0 de una escala de 12
Polen No disponible.
Calidad del aire No disponible.
Flu Activity No disponible.
METAR PALU 270055Z AUTO 10007KT 10SM CLR M12/M16 A3036 RMK AO2 SLP280 T11161164

More Conditions Fewer Conditions

Presión 30.36 pul
Visibilidad 10.0 Millas
Nubes Despejado
Vientos helados -1 ° F
Punto de rocío 2 ° F
Humedad 68%
Precipitaciones 0.00 pul
Espesor de la nieve No disponible.
UV 0 de una escala de 12
Polen No disponible.
Calidad del aire No disponible.
Flu Activity No disponible.
METAR PALU 270055Z AUTO 10007KT 10SM CLR M12/M16 A3036 RMK AO2 SLP280 T11161164

More Conditions Fewer Conditions

10-Day Weather Forecast

Almanac

Astronomía

Nov. 26, 2014 Salida Puesta
Hora real
Crepúsculo civil
Crepúsculo náutico
Crepúsculo astronómico
Luna
Horas de luz
Horas de luz
Tomorrow will be .
, % of the Moon is Illuminated

Extremos de hoy

Máximos del estado Bajos del estado

Community

WunderPhotos

Upload Photos

1,773,937 ¡fotos cargadas!

WunderBlogs® & News

Nearby

Calidad del aire

  Calidad del aire Índice AQ Contaminante
Not available.

Grosos de nieve

Estación Profundido Altura

Actividad de terremotos

Ciudad Distance Mag. Tiempo y dato
Magnitud mínima muestra es 2,5.

Temperaturas de aguas costeras

Lugar Temperatura

Estaciones meteorológicas cercanas